Time;durP1;ratioP1;P1;durP2;ratioP2;P2;SDS_P1;SDS_P2;PMS_P1;PMS_P2;Temp;Humidity;BMP_temperature;BMP_pressure;BME280_temperature;BME280_humidity;BME280_pressure;Samples;Min_cycle;Max_cycle;Signal;HPM_P1;HPM_P2
2022/02/09 00:01:17;;;;;;;2.47;1.83;;;;;;;8.24;95.43;102483.13;2026283;29;20075;-63
2022/02/09 00:03:21;;;;;;;3.85;1.88;;;;;;;8.22;95.74;102470.13;2026708;29;20044;-63
2022/02/09 00:07:17;;;;;;;2.40;1.83;;;;;;;8.18;96.38;102464.97;2026642;29;20032;-63
2022/02/09 00:08:09;;;;;;;5.55;2.55;;;;;;;8.17;97.19;102474.50;2032650;29;20033;-62
2022/02/09 00:09:11;;;;;;;2.42;1.88;;;;;;;8.14;97.47;102474.53;2030451;29;20040;-61
2022/02/09 00:10:11;;;;;;;3.35;1.98;;;;;;;8.13;97.96;102478.00;2026571;29;20111;-62
2022/02/09 00:11:18;;;;;;;4.17;2.40;;;;;;;8.09;99.01;102479.78;2026669;29;20076;-61
2022/02/09 00:12:25;;;;;;;4.25;1.90;;;;;;;8.05;99.80;102472.00;2026492;29;20522;-61
2022/02/09 00:13:43;;;;;;;3.58;2.10;;;;;;;8.03;100.00;102471.13;2026528;29;20032;-61
2022/02/09 00:15:07;;;;;;;4.25;2.13;;;;;;;7.96;100.00;102476.38;2025913;29;20053;-61
2022/02/09 00:18:55;;;;;;;2.40;1.93;;;;;;;7.84;100.00;102473.84;2026630;29;20045;-61
2022/02/09 00:23:47;;;;;;;3.35;2.20;;;;;;;7.78;100.00;102471.25;2026527;29;20036;-62
2022/02/09 00:34:27;;;;;;;2.95;1.90;;;;;;;7.67;100.00;102464.34;2026378;29;20492;-62
2022/02/09 00:36:56;;;;;;;2.67;1.83;;;;;;;7.65;100.00;102470.44;2033728;29;20478;-61
2022/02/09 00:58:57;;;;;;;2.60;1.55;;;;;;;7.71;100.00;102460.91;2026306;29;20037;-62
2022/02/09 01:38:07;;;;;;;3.72;2.72;;;;;;;7.77;100.00;102443.53;2026065;29;20398;-62
2022/02/09 01:39:32;;;;;;;5.70;2.92;;;;;;;7.77;100.00;102446.97;2025997;29;20116;-63
2022/02/09 01:50:59;;;;;;;4.13;3.10;;;;;;;7.82;100.00;102446.97;2025998;29;20127;-61
2022/02/09 01:55:36;;;;;;;4.13;2.92;;;;;;;7.87;100.00;102434.81;2026020;29;20032;-61
2022/02/09 01:56:37;;;;;;;5.70;3.22;;;;;;;7.86;100.00;102433.97;2025936;29;20029;-62
2022/02/09 01:57:37;;;;;;;5.68;3.03;;;;;;;7.88;100.00;102435.69;2025976;29;20519;-62
2022/02/09 01:58:37;;;;;;;3.38;2.80;;;;;;;7.88;100.00;102428.75;2025942;29;20029;-61
2022/02/09 01:59:39;;;;;;;3.57;2.60;;;;;;;7.90;100.00;102429.59;2026059;29;20048;-61
2022/02/09 02:00:40;;;;;;;4.55;3.08;;;;;;;7.90;100.00;102434.78;2025897;29;20060;-62
2022/02/09 02:01:40;;;;;;;3.97;2.67;;;;;;;7.89;100.00;102427.88;2025257;29;20040;-62
2022/02/09 02:02:40;;;;;;;4.17;2.70;;;;;;;7.92;100.00;102424.38;2025288;29;20040;-62
2022/02/09 02:03:41;;;;;;;5.27;2.43;;;;;;;7.93;99.96;102413.97;2025853;29;20033;-62
2022/02/09 02:04:41;;;;;;;4.07;2.70;;;;;;;7.95;99.60;102422.66;2025904;29;20419;-62
2022/02/09 02:05:42;;;;;;;9.97;3.20;;;;;;;7.97;99.76;102426.09;2025917;29;20035;-62
2022/02/09 02:06:45;;;;;;;4.30;2.75;;;;;;;7.96;99.26;102423.50;2025828;29;20028;-62
2022/02/09 02:07:51;;;;;;;3.80;2.53;;;;;;;7.95;99.08;102422.66;2033030;29;20561;-61
2022/02/09 02:08:53;;;;;;;3.40;2.25;;;;;;;7.97;99.33;102410.50;2032445;29;20028;-62
2022/02/09 02:10:00;;;;;;;3.60;2.50;;;;;;;7.98;99.21;102414.81;2025873;29;20029;-61
2022/02/09 02:12:19;;;;;;;2.67;2.10;;;;;;;8.01;98.80;102416.56;2025948;29;20071;-62
2022/02/09 02:15:01;;;;;;;4.97;2.60;;;;;;;8.04;98.84;102415.66;2025911;29;20037;-62
2022/02/09 02:16:25;;;;;;;3.20;2.30;;;;;;;8.03;98.71;102411.31;2025881;29;20088;-63
2022/02/09 02:17:40;;;;;;;3.17;2.25;;;;;;;8.03;98.63;102419.13;2025891;29;20182;-61
2022/02/09 02:18:43;;;;;;;3.45;2.17;;;;;;;8.02;98.48;102412.19;2032947;29;20260;-62
2022/02/09 02:24:55;;;;;;;3.60;2.50;;;;;;;8.05;98.03;102423.47;2025981;29;20070;-61
2022/02/09 02:26:14;;;;;;;3.25;2.22;;;;;;;8.08;98.70;102425.16;2027312;29;20032;-61
2022/02/09 02:28:52;;;;;;;5.25;2.28;;;;;;;8.09;97.76;102424.28;2027505;29;20088;-61
2022/02/09 02:33:07;;;;;;;4.97;2.42;;;;;;;8.10;98.19;102420.81;2026536;29;20044;-61
2022/02/09 02:35:58;;;;;;;3.60;2.60;;;;;;;8.12;98.37;102413.88;2027412;29;20028;-62
2022/02/09 02:38:41;;;;;;;4.35;2.58;;;;;;;8.09;98.48;102412.16;2027286;29;20056;-63
2022/02/09 02:56:53;;;;;;;4.80;3.28;;;;;;;7.97;100.00;102410.50;2027312;29;20050;-61
2022/02/09 02:57:57;;;;;;;4.68;3.67;;;;;;;7.80;100.00;102396.75;2027144;29;20123;-62
2022/02/09 03:11:37;;;;;;;5.53;3.83;;;;;;;7.56;100.00;102385.63;2027147;29;20040;-61
2022/02/09 03:13:51;;;;;;;4.72;3.38;;;;;;;7.54;100.00;102384.75;2027148;29;20184;-62
2022/02/09 03:15:01;;;;;;;5.82;4.18;;;;;;;7.55;100.00;102387.34;2026976;29;20442;-61
2022/02/09 03:16:12;;;;;;;6.65;4.25;;;;;;;7.56;100.00;102389.06;2026938;29;20032;-61
2022/02/09 03:17:18;;;;;;;5.15;4.28;;;;;;;7.56;100.00;102383.84;2026333;29;20490;-63
2022/02/09 03:19:41;;;;;;;5.00;4.10;;;;;;;7.54;100.00;102388.22;2026905;29;20063;-60
2022/02/09 03:23:44;;;;;;;4.65;3.63;;;;;;;7.58;100.00;102384.72;2033880;29;20418;-62
2022/02/09 03:27:24;;;;;;;6.18;4.05;;;;;;;7.59;100.00;102380.38;2027031;29;20176;-61
2022/02/09 03:30:58;;;;;;;7.50;4.35;;;;;;;7.59;100.00;102382.97;2026842;29;20032;-60
2022/02/09 03:46:09;;;;;;;5.82;4.97;;;;;;;7.60;100.00;102358.75;2033751;29;20051;-63
2022/02/09 03:47:24;;;;;;;6.57;5.05;;;;;;;7.60;100.00;102364.78;2033560;29;20040;-62
2022/02/09 03:52:51;;;;;;;6.88;4.70;;;;;;;7.60;100.00;102354.38;2026477;29;20039;-62
2022/02/09 03:56:27;;;;;;;6.43;4.60;;;;;;;7.57;100.00;102353.56;2027164;29;20040;-61
2022/02/09 03:57:41;;;;;;;8.55;5.47;;;;;;;7.56;100.00;102334.50;2026708;29;20103;-63
2022/02/09 03:58:41;;;;;;;5.68;3.97;;;;;;;7.56;100.00;102346.66;2026715;29;20491;-61
2022/02/09 03:59:42;;;;;;;6.33;4.60;;;;;;;7.56;100.00;102347.50;2026182;29;20052;-61
2022/02/09 04:00:45;;;;;;;7.13;4.57;;;;;;;7.56;100.00;102346.66;2026188;29;20494;-62
2022/02/09 04:01:45;;;;;;;6.80;5.07;;;;;;;7.56;100.00;102357.88;2026641;29;20435;-60
2022/02/09 04:02:54;;;;;;;7.85;4.63;;;;;;;7.55;100.00;102350.09;2026706;29;20514;-63
2022/02/09 04:03:54;;;;;;;7.82;4.82;;;;;;;7.55;100.00;102352.69;2026565;29;20060;-63
2022/02/09 04:04:57;;;;;;;6.50;4.37;;;;;;;7.55;100.00;102358.75;2026657;29;20048;-62
2022/02/09 04:05:57;;;;;;;8.43;4.68;;;;;;;7.55;100.00;102355.28;2026670;29;20479;-62
2022/02/09 04:06:57;;;;;;;6.63;4.67;;;;;;;7.54;100.00;102353.56;2026672;29;20028;-62
2022/02/09 04:07:59;;;;;;;6.27;4.43;;;;;;;7.56;100.00;102357.03;2026534;29;20029;-63
2022/02/09 04:09:04;;;;;;;6.85;4.70;;;;;;;7.56;100.00;102357.03;2026614;29;20028;-62
2022/02/09 04:10:07;;;;;;;5.65;3.83;;;;;;;7.55;100.00;102360.47;2026581;29;20028;-62
2022/02/09 04:11:18;;;;;;;6.97;4.82;;;;;;;7.54;100.00;102361.38;2026583;29;20029;-62
2022/02/09 04:13:35;;;;;;;5.82;4.35;;;;;;;7.54;100.00;102354.44;2026642;29;20107;-61
2022/02/09 04:14:47;;;;;;;6.30;3.72;;;;;;;7.55;100.00;102356.16;2026557;29;20029;-61
2022/02/09 04:15:58;;;;;;;7.85;4.35;;;;;;;7.56;100.00;102362.22;2033648;29;20060;-62
2022/02/09 04:17:47;;;;;;;6.38;4.05;;;;;;;7.55;100.00;102350.09;2032567;29;20076;-61
2022/02/09 04:22:36;;;;;;;9.52;4.18;;;;;;;7.52;100.00;102355.31;2026683;29;20116;-61
2022/02/09 04:40:13;;;;;;;4.10;2.70;;;;;;;7.46;100.00;102366.63;2026396;29;20036;-62
2022/02/09 04:42:42;;;;;;;5.25;3.97;;;;;;;7.43;100.00;102351.88;2026450;29;20076;-61
2022/02/09 04:48:50;;;;;;;4.78;3.33;;;;;;;7.35;100.00;102353.66;2026335;29;20040;-62
2022/02/09 04:54:17;;;;;;;5.57;3.45;;;;;;;7.31;100.00;102341.56;2026228;29;20407;-62
2022/02/09 04:54:58;;;;;;;4.80;3.00;;;;;;;7.30;100.00;102339.84;2026193;29;20442;-62
2022/02/09 04:56:07;;;;;;;4.70;2.85;;;;;;;7.30;100.00;102339.84;2026183;29;20044;-62
2022/02/09 04:58:14;;;;;;;4.63;2.72;;;;;;;7.30;100.00;102329.44;2033468;29;20032;-62
2022/02/09 05:00:23;;;;;;;4.75;2.28;;;;;;;7.25;100.00;102344.19;2032409;28;20039;-63
2022/02/09 05:01:58;;;;;;;4.75;2.13;;;;;;;7.25;100.00;102337.25;2026135;29;20120;-62
2022/02/09 05:05:34;;;;;;;4.43;2.13;;;;;;;7.25;100.00;102329.47;2026092;29;20064;-61
2022/02/09 05:18:53;;;;;;;2.38;1.05;;;;;;;7.38;99.30;102348.44;2025976;29;20036;-63
2022/02/09 05:20:49;;;;;;;2.58;1.35;;;;;;;7.40;99.18;102351.91;2025872;29;20039;-62
2022/02/09 05:22:48;;;;;;;4.22;1.60;;;;;;;7.39;99.18;102347.56;2026034;29;20039;-61
2022/02/09 05:24:13;;;;;;;1.92;1.05;;;;;;;7.39;98.98;102338.94;2026015;29;20040;-61
2022/02/09 05:25:37;;;;;;;2.25;1.30;;;;;;;7.40;98.58;102340.66;2026029;29;20033;-64
2022/02/09 05:26:40;;;;;;;3.58;1.45;;;;;;;7.42;99.38;102344.09;2025868;29;20087;-62
2022/02/09 05:27:54;;;;;;;2.15;1.25;;;;;;;7.40;98.88;102343.25;2025914;29;20039;-62
2022/02/09 05:28:54;;;;;;;3.05;1.30;;;;;;;7.36;99.58;102347.59;2025331;29;20043;-62
2022/02/09 05:29:58;;;;;;;2.90;1.50;;;;;;;7.36;99.73;102350.22;2025362;29;20051;-62
2022/02/09 05:30:59;;;;;;;3.15;1.25;;;;;;;7.32;99.96;102348.47;2025326;29;20033;-61
2022/02/09 05:31:59;;;;;;;2.33;1.57;;;;;;;7.29;100.00;102345.91;2025431;29;20024;-62
2022/02/09 05:32:59;;;;;;;2.30;1.40;;;;;;;7.26;100.00;102354.56;2025865;29;20432;-62
2022/02/09 05:33:59;;;;;;;3.28;1.20;;;;;;;7.21;100.00;102344.19;2025978;29;20032;-61
2022/02/09 05:35:00;;;;;;;4.13;1.60;;;;;;;7.18;100.00;102341.59;2033122;29;20454;-62
2022/02/09 05:36:00;;;;;;;2.23;1.17;;;;;;;7.16;100.00;102343.38;2033235;29;20043;-63
2022/02/09 05:37:01;;;;;;;2.97;1.57;;;;;;;7.16;100.00;102343.38;2026043;29;20068;-62
2022/02/09 05:38:01;;;;;;;3.63;1.67;;;;;;;7.17;100.00;102349.41;2025991;29;20032;-62
2022/02/09 05:39:03;;;;;;;2.20;1.17;;;;;;;7.17;100.00;102346.81;2026007;29;20757;-62
2022/02/09 05:40:03;;;;;;;3.35;1.50;;;;;;;7.15;100.00;102352.00;2025881;29;20089;-62
2022/02/09 05:41:04;;;;;;;2.30;1.50;;;;;;;7.15;100.00;102345.97;2025988;29;20108;-61
2022/02/09 05:42:08;;;;;;;2.43;1.60;;;;;;;7.13;100.00;102345.97;2025976;29;20475;-62
2022/02/09 05:43:10;;;;;;;4.93;1.80;;;;;;;7.09;100.00;102339.06;2025783;29;20542;-60
2022/02/09 05:44:12;;;;;;;2.95;1.75;;;;;;;7.06;100.00;102341.66;2025935;29;20036;-61
2022/02/09 05:45:13;;;;;;;5.07;1.60;;;;;;;7.02;100.00;102335.59;2025234;29;20052;-61
2022/02/09 05:46:49;;;;;;;3.25;2.03;;;;;;;7.01;100.00;102333.03;2025365;29;20509;-62
2022/02/09 05:50:16;;;;;;;4.88;2.35;;;;;;;6.99;100.00;102329.56;2025971;29;20056;-61
2022/02/09 05:51:32;;;;;;;4.40;2.30;;;;;;;7.01;100.00;102320.06;2025243;29;20479;-62
2022/02/09 05:56:06;;;;;;;6.27;2.30;;;;;;;7.08;100.00;102320.00;2026026;29;20033;-62
2022/02/09 05:57:13;;;;;;;2.88;1.90;;;;;;;7.08;100.00;102324.31;2025784;29;20020;-62
2022/02/09 05:59:31;;;;;;;3.42;2.25;;;;;;;7.11;100.00;102323.47;2031326;29;20091;-62
2022/02/09 06:00:32;;;;;;;3.93;2.20;;;;;;;7.11;100.00;102324.31;2027534;29;20076;-62
2022/02/09 06:01:33;;;;;;;4.13;1.97;;;;;;;7.13;100.00;102322.59;2027581;29;20028;-62
2022/02/09 06:02:33;;;;;;;4.18;2.30;;;;;;;7.13;100.00;102322.59;2027531;29;20028;-63
2022/02/09 06:03:33;;;;;;;4.97;2.40;;;;;;;7.15;100.00;102320.84;2027417;29;20032;-62
2022/02/09 06:04:38;;;;;;;3.90;2.30;;;;;;;7.13;100.00;102320.00;2034624;29;20035;-63
2022/02/09 06:05:38;;;;;;;2.60;1.73;;;;;;;7.09;100.00;102315.69;2026741;29;20546;-62
2022/02/09 06:06:38;;;;;;;4.13;2.50;;;;;;;7.08;100.00;102313.94;2019055;29;20020;-63
2022/02/09 06:07:40;;;;;;;5.20;2.53;;;;;;;7.11;100.00;102319.13;2026822;29;20028;-62
2022/02/09 06:08:40;;;;;;;5.20;2.80;;;;;;;7.09;100.00;102313.09;2027436;29;20463;-62
2022/02/09 06:09:40;;;;;;;4.87;3.10;;;;;;;7.09;100.00;102315.69;2027364;29;20036;-61
2022/02/09 06:10:47;;;;;;;4.68;2.97;;;;;;;7.13;100.00;102307.03;2027486;29;20033;-61
2022/02/09 06:11:54;;;;;;;4.72;2.40;;;;;;;7.13;100.00;102317.41;2027402;29;20039;-62
2022/02/09 06:13:11;;;;;;;4.50;2.25;;;;;;;7.12;100.00;102313.06;2027344;29;20099;-62
2022/02/09 06:20:17;;;;;;;5.13;2.45;;;;;;;7.22;100.00;102314.75;2027372;29;20032;-61
2022/02/09 06:21:19;;;;;;;5.83;2.73;;;;;;;7.24;100.00;102312.16;2027296;29;20347;-62
2022/02/09 06:22:21;;;;;;;4.72;2.65;;;;;;;7.28;99.84;102324.25;2027380;29;20041;-62
2022/02/09 06:23:22;;;;;;;4.78;2.50;;;;;;;7.29;99.71;102325.13;2027295;29;20039;-62
2022/02/09 06:24:22;;;;;;;3.90;2.47;;;;;;;7.31;99.68;102320.78;2034513;29;20457;-62
2022/02/09 06:25:23;;;;;;;7.55;3.13;;;;;;;7.32;99.90;102327.69;2034519;29;20548;-63
2022/02/09 06:26:24;;;;;;;5.15;2.60;;;;;;;7.32;100.00;102327.69;2027364;29;20029;-61
2022/02/09 06:27:24;;;;;;;4.83;3.17;;;;;;;7.31;100.00;102325.97;2027303;29;20036;-62
2022/02/09 06:28:25;;;;;;;4.93;3.17;;;;;;;7.31;99.80;102315.59;2027306;29;20371;-63
2022/02/09 06:29:25;;;;;;;5.57;3.10;;;;;;;7.31;99.72;102315.59;2026712;29;20024;-62
2022/02/09 06:30:25;;;;;;;4.30;3.00;;;;;;;7.32;99.56;102333.75;2018874;29;20025;-63
2022/02/09 06:31:26;;;;;;;4.97;3.23;;;;;;;7.32;100.00;102327.69;2026655;29;20032;-62
2022/02/09 06:32:27;;;;;;;6.67;3.60;;;;;;;7.32;100.00;102327.69;2027186;29;20083;-62
2022/02/09 06:33:28;;;;;;;6.75;3.42;;;;;;;7.33;99.91;102332.88;2026485;29;20120;-63
2022/02/09 06:34:28;;;;;;;5.60;3.70;;;;;;;7.37;99.92;102336.34;2026598;29;20035;-63
2022/02/09 06:35:28;;;;;;;5.57;3.63;;;;;;;7.38;99.38;102334.59;2027216;29;20024;-63
2022/02/09 06:36:29;;;;;;;5.03;3.03;;;;;;;7.39;99.50;102344.97;2027303;29;20021;-62
2022/02/09 06:37:42;;;;;;;5.53;3.38;;;;;;;7.42;99.17;102338.91;2027249;29;20055;-62
2022/02/09 06:38:42;;;;;;;4.70;3.22;;;;;;;7.43;99.63;102346.69;2027199;29;20553;-61
2022/02/09 06:39:45;;;;;;;4.90;3.03;;;;;;;7.43;99.45;102335.44;2027135;29;20028;-61
2022/02/09 06:40:46;;;;;;;5.30;3.58;;;;;;;7.41;99.89;102345.84;2027365;29;20088;-62
2022/02/09 06:41:47;;;;;;;5.60;3.22;;;;;;;7.38;100.00;102338.06;2027172;29;20028;-63
2022/02/09 06:42:47;;;;;;;5.97;3.37;;;;;;;7.35;100.00;102335.47;2027218;29;20024;-61
2022/02/09 06:43:48;;;;;;;6.97;3.75;;;;;;;7.33;100.00;102334.63;2027019;29;20053;-63
2022/02/09 06:44:49;;;;;;;5.00;3.20;;;;;;;7.30;100.00;102332.91;2027284;29;20111;-62
2022/02/09 06:45:49;;;;;;;6.43;3.95;;;;;;;7.29;100.00;102331.16;2027076;29;20029;-63
2022/02/09 06:46:50;;;;;;;5.20;3.93;;;;;;;7.27;100.00;102335.53;2027215;29;20682;-61
2022/02/09 06:47:51;;;;;;;5.43;3.40;;;;;;;7.26;100.00;102325.13;2027220;29;20036;-63
2022/02/09 06:48:51;;;;;;;6.50;3.92;;;;;;;7.27;100.00;102337.25;2026492;29;20024;-63
2022/02/09 06:49:59;;;;;;;5.38;3.70;;;;;;;7.26;100.00;102330.34;2026459;29;20032;-63
2022/02/09 06:51:09;;;;;;;5.78;3.92;;;;;;;7.28;100.00;102331.16;2033603;29;20584;-62
2022/02/09 06:52:09;;;;;;;6.10;4.00;;;;;;;7.28;100.00;102336.38;2027041;29;20077;-61
2022/02/09 06:54:30;;;;;;;7.22;4.18;;;;;;;7.30;100.00;102334.63;2027244;29;20051;-62
2022/02/09 06:55:32;;;;;;;5.63;3.85;;;;;;;7.31;100.00;102344.16;2027114;29;20413;-61
2022/02/09 06:59:20;;;;;;;8.65;4.30;;;;;;;7.34;100.00;102336.34;2034441;29;20089;-61
2022/02/09 07:00:20;;;;;;;7.40;4.65;;;;;;;7.36;100.00;102341.53;2031172;29;20029;-62
2022/02/09 07:01:20;;;;;;;7.40;4.57;;;;;;;7.36;100.00;102333.75;2027068;29;20394;-64
2022/02/09 07:02:21;;;;;;;7.17;4.47;;;;;;;7.35;100.00;102335.47;2034215;29;20028;-62
2022/02/09 07:03:21;;;;;;;7.50;4.90;;;;;;;7.37;100.00;102333.75;2034180;29;20031;-62
2022/02/09 07:04:21;;;;;;;6.80;4.90;;;;;;;7.39;100.00;102324.19;2026321;29;20183;-64
2022/02/09 07:05:21;;;;;;;6.97;4.77;;;;;;;7.39;100.00;102326.78;2026404;29;20052;-61
2022/02/09 07:06:22;;;;;;;8.53;5.00;;;;;;;7.41;100.00;102330.25;2027019;29;20045;-61
2022/02/09 07:07:22;;;;;;;7.23;4.20;;;;;;;7.41;100.00;102330.25;2027003;29;20490;-62
2022/02/09 07:08:22;;;;;;;8.57;5.43;;;;;;;7.40;100.00;102332.84;2027214;29;20486;-61
2022/02/09 07:09:24;;;;;;;6.03;5.00;;;;;;;7.39;100.00;102334.59;2027163;29;20501;-61
2022/02/09 07:10:24;;;;;;;9.23;6.05;;;;;;;7.40;99.99;102327.66;2026671;29;20371;-63
2022/02/09 07:11:25;;;;;;;9.40;6.13;;;;;;;7.42;100.00;102334.56;2027192;29;20031;-61
2022/02/09 07:12:25;;;;;;;9.10;5.50;;;;;;;7.42;100.00;102333.69;2027205;29;20107;-60
2022/02/09 07:13:25;;;;;;;9.73;6.17;;;;;;;7.41;100.00;102330.25;2027124;29;20036;-61
2022/02/09 07:14:28;;;;;;;9.70;5.87;;;;;;;7.41;100.00;102338.06;2027120;29;20024;-62
2022/02/09 07:15:32;;;;;;;9.70;5.00;;;;;;;7.42;100.00;102334.56;2027128;29;20501;-66
2022/02/09 07:16:33;;;;;;;8.05;5.50;;;;;;;7.45;100.00;102333.69;2027052;29;20095;-61
2022/02/09 07:17:33;;;;;;;8.98;5.70;;;;;;;7.45;100.00;102337.16;2026945;29;20040;-62
2022/02/09 07:18:36;;;;;;;7.27;4.90;;;;;;;7.45;100.00;102329.38;2026925;29;20047;-62
2022/02/09 07:19:38;;;;;;;8.77;5.88;;;;;;;7.45;99.99;102337.16;2026811;29;20036;-62
2022/02/09 07:20:52;;;;;;;8.13;5.45;;;;;;;7.45;100.00;102334.56;2026901;29;20040;-62
2022/02/09 07:21:53;;;;;;;8.60;5.22;;;;;;;7.46;100.00;102331.09;2026823;29;20077;-62
2022/02/09 07:22:56;;;;;;;9.40;5.90;;;;;;;7.46;100.00;102331.09;2033976;29;20091;-62
2022/02/09 07:23:59;;;;;;;9.88;6.32;;;;;;;7.47;100.00;102327.59;2033681;29;20028;-63
2022/02/09 07:25:33;;;;;;;9.20;5.32;;;;;;;7.46;100.00;102333.69;2026827;29;20406;-62
2022/02/09 07:26:41;;;;;;;7.90;5.20;;;;;;;7.50;99.84;102331.06;2027359;29;20032;-62
2022/02/09 07:28:43;;;;;;;10.40;5.72;;;;;;;7.51;100.00;102338.00;2026978;29;20037;-62
2022/02/09 07:29:43;;;;;;;8.50;5.57;;;;;;;7.52;99.73;102334.53;2026965;29;20031;-62
2022/02/09 07:30:43;;;;;;;9.47;5.60;;;;;;;7.53;99.93;102333.66;2026887;29;20028;-62
2022/02/09 07:31:44;;;;;;;8.57;5.40;;;;;;;7.53;99.53;102336.25;2026798;29;20025;-62
2022/02/09 07:32:45;;;;;;;9.38;6.13;;;;;;;7.53;99.88;102331.06;2026725;29;20035;-62
2022/02/09 07:33:45;;;;;;;9.43;6.03;;;;;;;7.52;100.00;102334.53;2026731;29;20482;-63
2022/02/09 07:34:45;;;;;;;8.30;5.65;;;;;;;7.52;100.00;102339.75;2026125;29;20510;-60
2022/02/09 07:35:46;;;;;;;6.77;5.00;;;;;;;7.55;99.94;102331.91;2018306;29;20122;-62
2022/02/09 07:36:46;;;;;;;7.10;5.00;;;;;;;7.55;99.62;102332.78;2026192;29;20037;-61
2022/02/09 07:37:47;;;;;;;7.73;5.60;;;;;;;7.56;99.93;102331.91;2026087;29;20029;-62
2022/02/09 07:38:47;;;;;;;6.55;4.80;;;;;;;7.57;100.00;102331.03;2026207;29;20067;-62
2022/02/09 07:39:47;;;;;;;7.47;5.25;;;;;;;7.58;99.62;102331.91;2026723;29;20414;-61
2022/02/09 07:40:51;;;;;;;7.37;4.87;;;;;;;7.57;99.55;102338.81;2026808;29;20103;-61
2022/02/09 07:41:54;;;;;;;9.38;5.68;;;;;;;7.58;99.75;102326.69;2026809;29;20060;-62
2022/02/09 07:42:59;;;;;;;8.35;5.50;;;;;;;7.62;99.38;102336.19;2025996;29;20514;-61
2022/02/09 07:44:18;;;;;;;8.07;5.10;;;;;;;7.63;99.39;102331.88;2026096;29;20052;-62
2022/02/09 07:46:42;;;;;;;7.72;5.13;;;;;;;7.62;99.27;102336.19;2026693;29;20068;-61
2022/02/09 07:49:03;;;;;;;9.68;5.53;;;;;;;7.61;99.57;102334.47;2026766;29;20055;-62
2022/02/09 07:50:29;;;;;;;9.15;5.03;;;;;;;7.58;99.00;102327.56;2026483;29;20037;-61
2022/02/09 07:52:26;;;;;;;8.93;6.07;;;;;;;7.57;99.53;102332.78;2026675;29;20040;-62
2022/02/09 07:53:36;;;;;;;;;;;;;;;7.57;99.61;102324.97;2027015;29;20384;-61
2022/02/09 07:54:37;;;;;;;8.43;4.03;;;;;;;7.58;98.78;102335.38;2026551;29;20380;-62
2022/02/09 07:55:37;;;;;;;8.07;5.70;;;;;;;7.60;98.93;102327.56;2026562;29;20020;-63
2022/02/09 07:56:40;;;;;;;9.70;5.40;;;;;;;7.59;98.83;102331.00;2026609;29;20028;-61
2022/02/09 07:57:40;;;;;;;11.18;6.38;;;;;;;7.58;99.16;102327.56;2026508;29;20514;-61
2022/02/09 07:58:41;;;;;;;11.07;6.17;;;;;;;7.59;99.12;102320.63;2026483;29;20024;-63
2022/02/09 07:59:41;;;;;;;10.47;5.33;;;;;;;7.60;99.11;102319.78;2026523;29;20339;-60
2022/02/09 08:00:42;;;;;;;10.30;6.00;;;;;;;7.62;99.22;102325.81;2026518;29;20029;-61
2022/02/09 08:01:43;;;;;;;9.90;5.68;;;;;;;7.63;98.84;102316.28;2026537;29;20024;-61
2022/02/09 08:02:45;;;;;;;;;;;;;;;7.68;99.21;102323.19;2026929;29;20021;-62
2022/02/09 08:03:46;;;;;;;8.48;4.90;;;;;;;7.67;98.54;102324.03;2026527;29;19921;-62
2022/02/09 08:04:46;;;;;;;7.53;4.55;;;;;;;7.68;98.30;102320.59;2026527;29;20020;-63
2022/02/09 08:05:46;;;;;;;9.97;5.07;;;;;;;7.72;98.05;102327.47;2026516;29;20024;-62
2022/02/09 08:06:48;;;;;;;9.40;5.67;;;;;;;7.77;97.78;102318.78;2026514;29;20119;-62
2022/02/09 08:07:48;;;;;;;10.77;5.47;;;;;;;7.81;98.08;102320.50;2026475;29;20056;-60
2022/02/09 08:08:48;;;;;;;8.97;5.23;;;;;;;7.89;97.51;102326.50;2026463;29;20158;-61
2022/02/09 08:09:49;;;;;;;9.13;6.13;;;;;;;7.94;97.63;102322.13;2026443;29;20510;-62
2022/02/09 08:10:54;;;;;;;8.60;4.87;;;;;;;7.94;97.08;102321.28;2026456;29;20061;-62
2022/02/09 08:12:13;;;;;;;10.23;6.93;;;;;;;7.90;97.35;102320.41;2026377;29;20020;-63
2022/02/09 08:30:00;;;;;;;13.77;5.70;;;;;;;8.22;95.65;102324.50;2026425;29;20032;-62
2022/02/09 08:33:28;;;;;;;9.52;5.35;;;;;;;8.25;95.58;102327.06;2026319;29;20063;-62
2022/02/09 08:34:29;;;;;;;8.67;5.77;;;;;;;8.26;95.24;102322.75;2026247;29;20052;-64
2022/02/09 08:35:30;;;;;;;8.00;5.22;;;;;;;8.27;95.07;102323.59;2026268;29;20039;-62
2022/02/09 08:36:30;;;;;;;10.68;5.82;;;;;;;8.30;95.41;102313.16;2026300;29;20029;-63
2022/02/09 08:37:30;;;;;;;9.23;5.87;;;;;;;8.32;95.15;102316.63;2026255;29;20067;-62
2022/02/09 08:38:31;;;;;;;9.63;6.90;;;;;;;8.32;95.12;102324.44;2026277;29;20067;-63
2022/02/09 08:39:32;;;;;;;14.23;6.77;;;;;;;8.31;95.03;102320.09;2026219;29;20096;-62
2022/02/09 08:40:32;;;;;;;11.07;6.22;;;;;;;8.31;95.14;102315.75;2026254;29;20035;-62
2022/02/09 08:41:33;;;;;;;11.63;7.00;;;;;;;8.35;95.15;102311.41;2026239;29;20029;-62
2022/02/09 08:42:33;;;;;;;9.75;5.82;;;;;;;8.45;95.28;102317.38;2026224;29;20039;-62
2022/02/09 08:43:34;;;;;;;10.10;6.13;;;;;;;8.69;93.86;102318.88;2026041;29;20052;-61
2022/02/09 08:44:34;;;;;;;11.13;5.97;;;;;;;8.82;93.33;102316.13;2026080;29;20490;-61
2022/02/09 08:45:35;;;;;;;11.23;5.90;;;;;;;8.81;92.76;102317.00;2025508;29;20031;-61
2022/02/09 08:46:36;;;;;;;11.63;6.35;;;;;;;8.72;92.80;102318.84;2025593;29;20029;-62
2022/02/09 08:47:36;;;;;;;9.63;6.13;;;;;;;8.72;92.79;102320.56;2026177;29;20107;-62
2022/02/09 08:48:36;;;;;;;9.40;5.80;;;;;;;8.72;92.33;102318.84;2026146;29;20240;-62
2022/02/09 08:49:37;;;;;;;10.20;6.07;;;;;;;8.73;92.37;102322.31;2026179;29;20028;-61
2022/02/09 08:50:37;;;;;;;9.20;5.90;;;;;;;8.72;92.61;102320.56;2026181;29;20051;-62
2022/02/09 08:51:37;;;;;;;10.27;5.93;;;;;;;8.72;92.35;102320.56;2025424;29;20549;-63
2022/02/09 08:52:38;;;;;;;12.30;7.15;;;;;;;8.65;92.45;102322.38;2025444;29;20043;-61
2022/02/09 08:53:38;;;;;;;10.93;6.17;;;;;;;8.62;92.83;102322.41;2026138;29;20028;-61
2022/02/09 08:54:38;;;;;;;10.23;6.00;;;;;;;8.61;93.21;102308.56;2025492;29;20258;-63
2022/02/09 08:55:39;;;;;;;9.87;6.20;;;;;;;8.65;92.74;102314.59;2025536;29;20379;-61
2022/02/09 08:56:39;;;;;;;11.17;6.80;;;;;;;8.71;92.70;102319.72;2026047;29;20024;-61
2022/02/09 08:57:39;;;;;;;11.13;5.87;;;;;;;8.71;92.67;102314.53;2026065;29;20107;-63
2022/02/09 08:58:41;;;;;;;10.20;6.13;;;;;;;8.75;92.45;102326.63;2026142;29;20040;-62
2022/02/09 08:59:41;;;;;;;9.82;5.57;;;;;;;8.72;91.94;102311.03;2026052;29;20394;-62
2022/02/09 09:00:42;;;;;;;8.43;6.10;;;;;;;8.67;92.18;102318.03;2026127;29;20031;-61
2022/02/09 09:01:47;;;;;;;;;;;;;;;8.69;92.62;102312.81;2026505;29;20080;-62
2022/02/09 09:02:52;;;;;;;9.15;5.53;;;;;;;8.69;92.45;102320.63;2026077;29;19911;-62
2022/02/09 09:03:56;;;;;;;9.85;5.70;;;;;;;8.73;91.86;102312.75;2025986;29;20031;-60
2022/02/09 09:05:07;;;;;;;10.45;6.60;;;;;;;8.81;91.88;102309.22;2026059;29;20058;-62
2022/02/09 09:06:09;;;;;;;10.15;5.65;;;;;;;8.81;91.45;102314.41;2026067;29;20039;-62
2022/02/09 09:07:15;;;;;;;8.05;5.70;;;;;;;8.72;91.16;102321.44;2025368;29;20073;-62
2022/02/09 09:10:47;;;;;;;7.75;4.97;;;;;;;8.75;91.73;102311.00;2026263;29;20123;-62
2022/02/09 09:17:46;;;;;;;7.63;4.47;;;;;;;10.64;82.86;102310.81;2026074;29;20478;-61
2022/02/09 10:01:17;;;;;;;6.88;4.28;;;;;;;8.90;87.80;102329.94;2025884;29;20056;-63
2022/02/09 10:02:04;;;;;;;9.02;4.72;;;;;;;8.76;88.49;102319.69;2025842;29;20032;-62
2022/02/09 10:32:51;;;;;;;6.30;3.75;;;;;;;8.65;90.93;102355.38;2025823;29;20039;-62
2022/02/09 10:33:59;;;;;;;5.88;3.53;;;;;;;8.61;91.40;102349.31;2032807;29;20123;-63
2022/02/09 10:35:20;;;;;;;7.40;3.40;;;;;;;8.56;92.10;102348.50;2032163;29;20020;-63
2022/02/09 10:36:21;;;;;;;7.82;4.00;;;;;;;8.47;92.59;102347.69;2025137;29;20421;-61
2022/02/09 10:37:28;;;;;;;7.97;4.80;;;;;;;8.47;93.72;102339.03;2025186;29;20510;-62
2022/02/09 10:38:34;;;;;;;7.35;4.25;;;;;;;8.53;94.23;102345.91;2025830;29;20025;-63
2022/02/09 10:40:55;;;;;;;5.95;4.03;;;;;;;8.51;93.93;102332.91;2025904;29;20048;-63
2022/02/09 10:42:56;;;;;;;7.40;4.57;;;;;;;8.54;94.07;102332.03;2025747;29;20375;-63
2022/02/09 10:43:31;;;;;;;5.75;4.03;;;;;;;8.59;94.05;102335.47;2024934;29;20057;-64
2022/02/09 10:44:51;;;;;;;8.57;4.45;;;;;;;8.59;93.96;102336.31;2025729;29;20028;-62
2022/02/09 10:45:53;;;;;;;8.18;4.85;;;;;;;8.59;93.97;102340.69;2026248;29;20043;-61